Time;durP1;ratioP1;P1;durP2;ratioP2;P2;SDS_P1;SDS_P2;PMS_P1;PMS_P2;Temp;Humidity;BMP_temperature;BMP_pressure;BME280_temperature;BME280_humidity;BME280_pressure;Samples;Min_cycle;Max_cycle;Signal;HPM_P1;HPM_P2
2022/10/19 04:02:05;;;;;;;12.53;5.37;;;;;;;;;;5228744;23;20892;-81
2022/10/19 04:04:31;;;;;;;11.50;5.07;;;;;;;;;;5014248;28;20408;-80
2022/10/19 04:06:57;;;;;;;16.00;6.73;;;;;;;;;;5012172;28;20420;-80
2022/10/19 04:09:23;;;;;;;15.60;5.83;;;7.90;96.30;;;;;;5012695;28;20419;-80
2022/10/19 04:11:49;;;;;;;12.83;5.53;;;7.90;96.30;;;;;;5014046;28;20196;-80
2022/10/19 04:14:16;;;;;;;11.57;5.60;;;8.00;96.30;;;;;;5013920;28;20181;-80
2022/10/19 04:16:42;;;;;;;11.93;5.47;;;8.00;96.30;;;;;;5027090;28;20962;-80
2022/10/19 04:19:08;;;;;;;11.73;5.50;;;8.10;96.30;;;;;;5025161;28;20503;-80
2022/10/19 04:26:54;;;;;;;11.93;6.37;;;8.60;96.30;;;;;;5013915;28;20481;-81
2022/10/19 04:29:22;;;;;;;12.10;5.87;;;8.70;96.30;;;;;;5015483;28;20399;-81
2022/10/19 04:31:49;;;;;;;9.03;6.23;;;8.80;96.30;;;;;;5009211;28;20456;-81
2022/10/19 04:34:15;;;;;;;17.47;7.10;;;8.80;96.30;;;;;;5007465;28;20424;-82
2022/10/19 04:36:40;;;;;;;14.10;6.70;;;8.90;96.30;;;;;;5009526;28;20997;-82
2022/10/19 04:39:06;;;;;;;16.70;6.60;;;8.90;96.30;;;;;;5010019;28;20169;-81
2022/10/19 04:41:32;;;;;;;23.53;6.90;;;8.90;96.30;;;;;;5024161;28;20200;-81
2022/10/19 04:44:00;;;;;;;17.00;7.57;;;8.90;96.30;;;;;;5006261;28;20419;-81
2022/10/19 04:46:26;;;;;;;14.63;7.50;;;8.90;96.30;;;;;;5008622;28;20180;-81
2022/10/19 04:48:53;;;;;;;16.63;7.90;;;9.00;96.30;;;;;;5002241;28;20943;-81
2022/10/19 04:51:19;;;;;;;12.20;7.43;;;9.00;96.30;;;;;;5005073;28;20951;-82
2022/10/19 04:53:45;;;;;;;20.20;8.00;;;9.00;96.30;;;;;;5010679;28;20527;-81
2022/10/19 04:56:19;;;;;;;11.63;8.60;;;9.00;96.30;;;;;;5012003;28;20470;-82
2022/10/19 04:58:45;;;;;;;26.40;9.50;;;9.00;96.30;;;;;;5027939;28;20404;-81
2022/10/19 05:01:17;;;;;;;15.13;9.93;;;9.00;96.30;;;;;;5011262;28;20499;-82
2022/10/19 05:03:43;;;;;;;18.00;11.47;;;9.00;96.30;;;;;;5027596;28;20423;-81
2022/10/19 05:06:09;;;;;;;21.50;11.63;;;9.00;96.30;;;;;;5010622;28;20518;-81
2022/10/19 05:08:36;;;;;;;18.87;11.40;;;9.00;96.30;;;;;;5028060;28;20420;-81
2022/10/19 05:11:05;;;;;;;23.33;10.90;;;9.00;96.30;;;;;;5013351;28;20515;-81
2022/10/19 05:13:34;;;;;;;14.90;10.13;;;8.90;96.30;;;;;;5009123;28;20543;-81
2022/10/19 05:16:01;;;;;;;24.80;11.67;;;8.90;96.30;;;;;;5011114;28;20464;-81
2022/10/19 05:18:27;;;;;;;17.27;11.33;;;8.90;96.30;;;;;;5027681;28;20408;-82
2022/10/19 05:21:12;;;;;;;26.70;10.87;;;9.00;96.30;;;;;;5025322;28;20771;-82
2022/10/19 05:23:39;;;;;;;14.67;11.07;;;9.00;96.30;;;;;;5020564;28;20687;-82
2022/10/19 05:26:08;;;;;;;19.57;10.83;;;9.00;96.30;;;;;;5002148;28;20494;-81
2022/10/19 05:28:34;;;;;;;15.13;11.57;;;8.90;96.30;;;;;;5002691;28;20416;-82
2022/10/19 05:31:19;;;;;;;19.77;11.83;;;8.90;96.30;;;;;;5003780;28;20885;-82
2022/10/19 05:33:45;;;;;;;22.03;11.73;;;8.80;96.30;;;;;;5003813;28;20419;-81
2022/10/19 05:36:18;;;;;;;15.77;10.63;;;8.80;96.30;;;;;;5022179;28;20459;-82
2022/10/19 05:38:46;;;;;;;14.77;11.20;;;8.80;96.30;;;;;;4985010;28;20447;-82
2022/10/19 05:41:12;;;;;;;18.63;10.37;;;8.70;96.30;;;;;;5021118;28;20458;-81
2022/10/19 05:43:40;;;;;;;21.03;10.87;;;8.70;96.30;;;;;;5021405;28;20423;-81
2022/10/19 05:46:07;;;;;;;25.33;11.07;;;8.60;96.30;;;;;;5003625;28;20434;-80
2022/10/19 05:48:34;;;;;;;18.30;11.43;;;8.60;96.30;;;;;;5020449;28;20484;-80
2022/10/19 05:51:01;;;;;;;18.80;9.80;;;8.60;96.30;;;;;;5003705;28;20471;-80
2022/10/19 05:53:28;;;;;;;22.47;10.53;;;8.60;96.30;;;;;;5004177;28;20431;-81
2022/10/19 05:55:54;;;;;;;28.27;10.50;;;8.60;96.30;;;;;;5022084;28;20460;-81
2022/10/19 05:58:20;;;;;;;12.87;9.17;;;8.70;96.30;;;;;;5019780;28;20977;-80
2022/10/19 06:00:56;;;;;;;20.70;9.90;;;8.70;96.30;;;;;;5019637;28;20196;-81
2022/10/19 06:03:23;;;;;;;15.60;10.10;;;8.60;96.30;;;;;;5018957;28;20637;-81
2022/10/19 06:06:24;;;;;;;21.03;10.13;;;8.70;96.30;;;;;;5002923;28;20430;-81
2022/10/19 06:08:51;;;;;;;19.67;10.30;;;8.70;96.30;;;;;;5000425;28;20443;-82
2022/10/19 06:11:19;;;;;;;19.93;8.90;;;8.70;96.30;;;;;;4999708;28;20438;-82
2022/10/19 06:13:46;;;;;;;19.03;10.33;;;8.70;96.30;;;;;;5016301;28;20432;-82
2022/10/19 06:16:14;;;;;;;15.57;10.33;;;8.70;96.30;;;;;;5000608;28;20893;-82
2022/10/19 06:18:41;;;;;;;23.77;10.10;;;8.70;96.30;;;;;;4999848;28;20404;-81
2022/10/19 06:21:10;;;;;;;19.60;10.80;;;8.70;96.30;;;;;;5017551;28;20927;-81
2022/10/19 06:23:37;;;;;;;20.70;10.50;;;8.70;96.30;;;;;;5021724;28;20433;-82
2022/10/19 06:26:14;;;;;;;19.37;9.50;;;8.70;96.30;;;;;;5008284;28;20464;-81
2022/10/19 06:28:42;;;;;;;21.50;10.63;;;8.70;96.30;;;;;;5000627;28;20424;-81
2022/10/19 06:31:08;;;;;;;17.37;10.13;;;8.70;96.30;;;;;;5015888;28;20919;-81
2022/10/19 06:33:33;;;;;;;23.50;10.00;;;8.80;96.30;;;;;;4997019;28;20499;-82
2022/10/19 06:36:11;;;;;;;12.93;8.23;;;8.80;96.30;;;;;;4998302;28;21034;-82
2022/10/19 06:38:37;;;;;;;19.07;10.00;;;8.90;96.30;;;;;;5014412;28;20165;-81
2022/10/19 06:41:03;;;;;;;17.40;9.07;;;8.80;96.30;;;;;;4997069;28;20442;-82
2022/10/19 06:43:29;;;;;;;27.60;9.77;;;;;;;;;;4997520;28;20228;-81
2022/10/19 06:45:55;;;;;;;16.50;8.17;;;8.90;96.30;;;;;;5014430;28;21143;-82
2022/10/19 06:48:20;;;;;;;18.30;8.47;;;8.90;96.30;;;;;;5014258;28;20181;-81
2022/10/19 06:50:46;;;;;;;14.97;6.93;;;9.00;96.30;;;;;;5013658;28;20459;-82
2022/10/19 06:53:11;;;;;;;12.70;6.97;;;9.00;96.30;;;;;;4996010;28;20204;-82
2022/10/19 06:55:37;;;;;;;14.97;7.30;;;9.00;96.30;;;;;;5013589;28;20197;-82
2022/10/19 06:58:03;;;;;;;12.50;6.60;;;;;;;;;;5012984;28;20184;-81
2022/10/19 07:00:29;;;;;;;13.97;7.47;;;9.10;96.30;;;;;;5013511;28;20201;-82
2022/10/19 07:02:55;;;;;;;16.00;6.00;;;;;;;;;;4995771;28;20546;-81
2022/10/19 07:05:21;;;;;;;10.77;5.53;;;9.20;96.30;;;;;;4995886;28;20439;-81
2022/10/19 07:07:46;;;;;;;13.50;6.00;;;9.30;96.30;;;;;;4995879;28;20785;-82
2022/10/19 07:10:12;;;;;;;13.33;4.93;;;9.30;96.30;;;;;;5013838;28;20696;-82
2022/10/19 07:12:38;;;;;;;11.50;5.90;;;9.30;96.30;;;;;;4996240;28;20687;-82
2022/10/19 07:15:04;;;;;;;17.03;5.80;;;9.40;96.30;;;;;;4995938;28;20205;-82
2022/10/19 07:17:29;;;;;;;11.77;5.33;;;9.60;96.30;;;;;;4995322;28;20596;-82
2022/10/19 07:19:55;;;;;;;8.33;4.40;;;9.70;96.30;;;;;;5013543;28;20408;-82
2022/10/19 07:22:21;;;;;;;11.47;4.30;;;9.80;96.30;;;;;;4995929;28;20196;-82
2022/10/19 07:24:46;;;;;;;12.13;4.20;;;9.90;96.30;;;;;;4995640;28;20196;-82
2022/10/19 07:27:12;;;;;;;12.83;3.77;;;9.90;96.30;;;;;;5012662;28;20761;-82
2022/10/19 07:29:38;;;;;;;9.03;3.80;;;;;;;;;;5013407;28;20173;-81
2022/10/19 07:32:03;;;;;;;7.23;3.30;;;9.90;96.30;;;;;;4995690;28;20239;-81
2022/10/19 07:34:29;;;;;;;16.57;4.17;;;10.10;96.30;;;;;;4995833;28;20180;-82
2022/10/19 07:36:55;;;;;;;13.80;3.60;;;10.10;96.30;;;;;;4995080;28;20205;-82
2022/10/19 07:39:20;;;;;;;14.10;4.00;;;10.00;96.30;;;;;;4995538;28;20656;-82
2022/10/19 07:41:46;;;;;;;14.37;3.80;;;10.00;96.30;;;;;;4995346;28;20206;-82
2022/10/19 07:44:12;;;;;;;8.67;3.40;;;10.10;96.30;;;;;;4995611;28;20205;-82
2022/10/19 07:46:38;;;;;;;4.40;2.47;;;10.20;96.30;;;;;;4995377;28;20286;-82
2022/10/19 07:49:08;;;;;;;5.73;2.40;;;10.20;96.30;;;;;;5012898;28;20876;-82
2022/10/19 07:51:35;;;;;;;9.17;2.73;;;10.20;96.30;;;;;;5013026;28;20224;-81
2022/10/19 07:54:01;;;;;;;16.77;2.57;;;10.30;96.30;;;;;;4995793;28;20820;-82
2022/10/19 07:56:27;;;;;;;6.20;2.13;;;10.20;96.30;;;;;;5013169;28;20462;-81
2022/10/19 07:58:55;;;;;;;9.20;2.43;;;10.20;96.30;;;;;;4994604;28;20181;-81
2022/10/19 08:01:24;;;;;;;3.20;1.60;;;10.20;96.30;;;;;;5012766;28;20434;-82
2022/10/19 08:03:51;;;;;;;8.13;2.87;;;10.20;96.30;;;;;;5013133;28;20404;-81
2022/10/19 08:06:18;;;;;;;4.70;1.47;;;10.20;96.30;;;;;;4994901;28;20428;-82
2022/10/19 08:08:45;;;;;;;5.43;1.90;;;10.20;96.30;;;;;;5012090;28;20416;-80
2022/10/19 08:11:26;;;;;;;8.03;3.17;;;10.10;96.30;;;;;;4994935;28;20954;-81
2022/10/19 08:13:52;;;;;;;6.80;2.73;;;10.30;96.30;;;;;;4995059;28;20423;-82
2022/10/19 08:16:28;;;;;;;11.43;2.40;;;10.40;96.30;;;;;;4994876;28;20494;-82
2022/10/19 08:18:59;;;;;;;13.60;3.20;;;10.40;96.30;;;;;;5012317;28;20751;-81
2022/10/19 08:21:26;;;;;;;10.33;2.70;;;10.40;96.30;;;;;;5012658;28;20439;-81
2022/10/19 08:23:52;;;;;;;8.50;3.23;;;;;;;;;;4995179;28;20419;-80
2022/10/19 08:26:18;;;;;;;10.00;2.17;;;10.40;96.30;;;;;;4994916;28;20439;-81
2022/10/19 08:28:44;;;;;;;12.97;2.40;;;10.50;96.30;;;;;;5013748;28;20473;-82
2022/10/19 08:31:15;;;;;;;10.33;3.20;;;10.60;96.30;;;;;;4999065;28;20588;-81
2022/10/19 08:33:40;;;;;;;10.07;2.60;;;10.70;96.30;;;;;;4999002;28;20203;-83
2022/10/19 08:36:08;;;;;;;8.23;2.80;;;10.80;96.30;;;;;;4998583;28;20970;-81
2022/10/19 08:38:35;;;;;;;7.97;2.10;;;10.80;96.30;;;;;;5015552;28;20199;-81
2022/10/19 08:41:24;;;;;;;5.63;1.90;;;10.80;96.30;;;;;;4998304;28;20502;-81
2022/10/19 08:44:15;;;;;;;6.00;2.27;;;10.80;96.30;;;;;;5003172;28;20434;-81
2022/10/19 08:46:46;;;;;;;11.17;2.57;;;11.00;96.30;;;;;;4998210;28;20505;-82
2022/10/19 08:49:18;;;;;;;5.43;1.67;;;11.20;96.30;;;;;;5016229;28;20451;-81
2022/10/19 08:51:47;;;;;;;8.87;2.47;;;11.30;96.30;;;;;;5015904;28;20423;-80
2022/10/19 08:54:16;;;;;;;7.53;3.30;;;11.30;96.30;;;;;;5015850;28;21002;-81
2022/10/19 08:57:07;;;;;;;9.13;2.20;;;11.20;96.30;;;;;;4998155;28;20514;-81
2022/10/19 08:59:56;;;;;;;5.63;2.10;;;11.20;96.30;;;;;;4998618;28;20896;-82
2022/10/19 09:02:39;;;;;;;8.03;2.20;;;11.10;96.30;;;;;;5015992;28;20789;-82
2022/10/19 09:05:14;;;;;;;3.93;2.00;;;11.20;96.30;;;;;;5015775;28;20392;-82
2022/10/19 09:07:44;;;;;;;5.57;2.00;;;11.30;96.30;;;;;;4997499;28;20391;-81
2022/10/19 09:10:19;;;;;;;5.33;1.97;;;11.20;96.30;;;;;;4997880;28;20495;-82
2022/10/19 09:12:58;;;;;;;7.67;2.17;;;11.30;96.30;;;;;;5015645;28;20442;-82
2022/10/19 09:15:31;;;;;;;2.70;1.50;;;11.50;96.30;;;;;;5015524;28;20442;-82
2022/10/19 09:17:56;;;;;;;2.67;1.27;;;11.40;96.30;;;;;;5015154;28;20419;-82
2022/10/19 09:20:30;;;;;;;6.10;1.83;;;11.20;96.30;;;;;;4999203;28;20470;-82
2022/10/19 09:23:19;;;;;;;5.23;1.90;;;11.10;96.30;;;;;;5015727;28;20621;-82
2022/10/19 09:25:48;;;;;;;5.70;1.37;;;10.90;96.30;;;;;;5015270;28;20779;-82
2022/10/19 09:28:34;;;;;;;8.80;1.40;;;10.80;96.30;;;;;;4997011;28;20511;-82
2022/10/19 09:31:01;;;;;;;3.50;1.20;;;10.70;96.30;;;;;;4998634;28;20847;-82
2022/10/19 09:33:31;;;;;;;3.70;1.00;;;10.60;96.30;;;;;;5014135;28;20408;-83
2022/10/19 09:35:59;;;;;;;6.50;1.40;;;10.80;96.30;;;;;;5015003;28;20542;-83
2022/10/19 09:38:27;;;;;;;3.33;1.00;;;10.70;96.30;;;;;;4997102;28;20515;-82
2022/10/19 09:40:53;;;;;;;7.27;0.90;;;;;;;;;;4996495;28;20525;-82
2022/10/19 09:43:20;;;;;;;3.23;0.80;;;10.80;96.30;;;;;;5015235;28;21111;-82
2022/10/19 09:46:08;;;;;;;4.00;1.17;;;10.80;96.30;;;;;;4997846;28;20203;-81
2022/10/19 09:48:52;;;;;;;5.50;1.80;;;10.80;96.30;;;;;;4996928;28;20420;-81
2022/10/19 09:51:19;;;;;;;3.10;1.10;;;11.00;96.30;;;;;;5014742;28;20461;-81
2022/10/19 09:53:54;;;;;;;3.63;0.70;;;11.00;96.30;;;;;;5014695;28;20439;-82
2022/10/19 09:56:25;;;;;;;5.03;1.10;;;11.10;96.30;;;;;;4997122;28;20475;-81
2022/10/19 09:58:53;;;;;;;2.80;0.60;;;11.10;96.30;;;;;;5014186;28;20400;-82
2022/10/19 10:01:32;;;;;;;3.20;0.80;;;11.00;96.30;;;;;;5014678;28;20464;-82
2022/10/19 10:04:12;;;;;;;3.20;0.83;;;11.00;96.30;;;;;;4997138;28;20412;-82
2022/10/19 10:06:38;;;;;;;6.07;1.10;;;11.00;96.30;;;;;;4997421;28;20419;-81
2022/10/19 10:09:04;;;;;;;2.87;0.90;;;10.90;96.30;;;;;;5013910;28;20420;-81
2022/10/19 10:11:38;;;;;;;2.63;0.80;;;11.10;96.30;;;;;;4996761;28;20231;-82
2022/10/19 10:14:25;;;;;;;3.90;0.80;;;11.30;96.30;;;;;;5014472;28;20196;-81
2022/10/19 10:16:56;;;;;;;1.83;0.80;;;11.70;96.30;;;;;;4999703;28;20463;-81
2022/10/19 10:19:26;;;;;;;4.57;1.10;;;12.00;96.30;;;;;;5017601;28;20435;-80
2022/10/19 10:21:54;;;;;;;3.03;0.93;;;12.40;96.30;;;;;;5004720;28;20463;-80
2022/10/19 10:24:22;;;;;;;2.90;1.20;;;12.30;96.30;;;;;;5002779;28;20404;-80
2022/10/19 10:26:51;;;;;;;2.37;1.03;;;12.00;96.30;;;;;;4999669;28;20419;-81
2022/10/19 10:29:19;;;;;;;4.20;0.90;;;11.80;96.30;;;;;;4998037;28;20840;-80
2022/10/19 10:31:48;;;;;;;4.67;1.23;;;11.80;96.30;;;;;;4996902;28;20481;-81
2022/10/19 10:34:22;;;;;;;1.63;0.80;;;11.80;96.30;;;;;;4997008;28;20470;-81
2022/10/19 10:36:52;;;;;;;4.20;1.00;;;11.80;96.30;;;;;;5013929;28;20447;-81
2022/10/19 10:39:27;;;;;;;2.50;1.23;;;12.10;96.30;;;;;;5014575;28;20459;-81
2022/10/19 10:41:53;;;;;;;2.40;1.00;;;12.80;96.30;;;;;;5014411;28;20431;-80
2022/10/19 10:44:29;;;;;;;6.07;0.67;;;12.90;96.30;;;;;;4996662;28;20772;-80
2022/10/19 10:46:58;;;;;;;3.70;0.80;;;12.60;96.30;;;;;;4996320;28;20828;-81
2022/10/19 10:49:35;;;;;;;4.30;1.00;;;12.10;96.30;;;;;;5014226;28;20412;-81
2022/10/19 10:52:09;;;;;;;4.63;0.80;;;11.60;96.30;;;;;;5012591;28;20480;-81
2022/10/19 10:54:36;;;;;;;5.90;1.10;;;11.40;96.30;;;;;;5014139;28;20404;-81
2022/10/19 10:57:14;;;;;;;6.17;0.83;;;11.10;96.30;;;;;;5013375;28;20885;-81
2022/10/19 11:00:07;;;;;;;2.73;0.70;;;11.20;96.30;;;;;;5013750;28;20411;-81
2022/10/19 11:02:47;;;;;;;1.63;0.80;;;11.20;96.30;;;;;;5014347;28;20431;-81
2022/10/19 11:05:18;;;;;;;2.70;0.90;;;11.00;96.30;;;;;;4996334;28;20559;-81
2022/10/19 11:07:46;;;;;;;3.13;1.37;;;11.00;96.30;;;;;;4995990;28;20412;-81
2022/10/19 11:10:35;;;;;;;3.57;0.80;;;11.20;96.30;;;;;;5013627;28;20416;-81
2022/10/19 11:13:13;;;;;;;4.83;1.23;;;11.40;96.30;;;;;;4984727;28;21020;-81
2022/10/19 11:15:58;;;;;;;1.80;0.77;;;11.60;96.30;;;;;;5013529;28;20550;-81
2022/10/19 11:18:45;;;;;;;2.57;1.10;;;12.10;96.30;;;;;;4996234;28;20510;-81
2022/10/19 11:21:26;;;;;;;1.20;0.87;;;12.20;96.30;;;;;;5013776;28;20796;-81
2022/10/19 11:24:17;;;;;;;2.87;1.17;;;12.70;96.30;;;;;;4996401;28;20416;-81
2022/10/19 11:27:07;;;;;;;3.00;1.00;;;12.70;96.30;;;;;;4995648;28;20439;-81
2022/10/19 11:30:10;;;;;;;2.30;0.63;;;12.40;96.30;;;;;;4995775;28;20899;-81
2022/10/19 11:33:20;;;;;;;2.60;0.70;;;12.10;96.30;;;;;;5013933;28;20519;-81
2022/10/19 11:36:10;;;;;;;2.40;0.80;;;11.60;96.30;;;;;;5000241;28;20452;-81
2022/10/19 11:38:52;;;;;;;4.67;1.20;;;11.50;96.30;;;;;;5018807;28;20904;-81
2022/10/19 11:41:36;;;;;;;2.77;0.80;;;11.70;96.30;;;;;;4998435;28;20546;-81
2022/10/19 11:44:11;;;;;;;2.90;0.90;;;11.60;96.30;;;;;;4995834;28;20490;-81
2022/10/19 11:46:39;;;;;;;3.03;0.80;;;11.50;96.30;;;;;;4995467;28;20431;-81
2022/10/19 11:49:31;;;;;;;4.80;0.70;;;11.40;96.30;;;;;;5013046;28;20408;-81
2022/10/19 11:52:06;;;;;;;3.10;0.70;;;11.00;96.30;;;;;;4995800;28;20432;-81
2022/10/19 11:55:09;;;;;;;2.90;0.70;;;11.00;96.30;;;;;;5013441;28;20399;-80
2022/10/19 11:57:54;;;;;;;1.50;0.70;;;11.00;96.30;;;;;;4996724;28;20435;-80
2022/10/19 12:00:20;;;;;;;2.83;0.80;;;11.20;96.30;;;;;;4995298;28;20961;-81
2022/10/19 12:03:14;;;;;;;1.90;0.97;;;11.30;96.30;;;;;;4994522;28;20412;-80
2022/10/19 12:06:08;;;;;;;1.10;0.50;;;11.20;96.30;;;;;;4995315;28;20411;-81
2022/10/19 12:08:45;;;;;;;2.63;0.67;;;11.10;96.30;;;;;;5012226;28;20430;-81
2022/10/19 12:11:38;;;;;;;5.30;0.70;;;11.00;96.30;;;;;;5012635;28;20424;-81
2022/10/19 12:14:18;;;;;;;3.53;0.83;;;10.90;96.30;;;;;;4995178;28;20956;-80
2022/10/19 12:16:49;;;;;;;4.20;0.80;;;10.80;96.30;;;;;;5011963;28;20471;-80
2022/10/19 12:19:22;;;;;;;5.17;0.70;;;10.70;96.30;;;;;;5012443;28;20392;-80
2022/10/19 12:21:50;;;;;;;2.60;0.63;;;10.70;96.30;;;;;;4994919;28;20479;-81
2022/10/19 12:24:22;;;;;;;2.60;1.00;;;10.70;96.30;;;;;;4994992;28;20420;-81
2022/10/19 12:26:50;;;;;;;3.23;0.70;;;10.70;96.30;;;;;;5011934;28;20412;-80
2022/10/19 12:29:33;;;;;;;1.43;0.70;;;10.80;96.30;;;;;;5012705;28;20416;-80
2022/10/19 12:32:00;;;;;;;2.40;0.80;;;10.80;96.30;;;;;;5012311;28;20459;-80
2022/10/19 12:34:48;;;;;;;3.40;0.83;;;10.90;96.30;;;;;;4994702;28;20419;-80
2022/10/19 12:37:49;;;;;;;5.70;0.80;;;11.20;96.30;;;;;;4994155;28;20553;-80
2022/10/19 12:40:38;;;;;;;3.63;0.80;;;11.20;96.30;;;;;;4994589;28;20419;-80
2022/10/19 12:43:18;;;;;;;4.90;0.93;;;11.20;96.30;;;;;;4994854;28;20414;-81
2022/10/19 12:46:37;;;;;;;1.00;0.70;;;11.10;96.30;;;;;;4994693;28;20427;-80
2022/10/19 12:49:24;;;;;;;2.60;1.00;;;11.20;96.30;;;;;;4916251;29;20424;-80
2022/10/19 12:51:51;;;;;;;3.13;1.00;;;11.40;96.30;;;;;;5011758;28;20427;-80
2022/10/19 12:54:22;;;;;;;4.90;1.37;;;11.40;96.30;;;;;;4994660;28;20460;-80
2022/10/19 12:56:49;;;;;;;3.10;0.70;;;11.40;96.30;;;;;;5011574;28;20534;-80
2022/10/19 12:59:35;;;;;;;6.20;1.00;;;11.10;96.30;;;;;;5012463;28;20412;-80
2022/10/19 13:02:05;;;;;;;1.30;0.60;;;11.00;96.30;;;;;;5012331;28;21008;-80
2022/10/19 13:04:34;;;;;;;1.83;0.80;;;10.90;96.30;;;;;;4994501;28;20482;-80
2022/10/19 13:07:07;;;;;;;2.60;0.80;;;10.90;96.30;;;;;;4994007;28;20424;-80
2022/10/19 13:09:44;;;;;;;4.90;0.83;;;10.80;96.30;;;;;;5013090;28;20422;-80
2022/10/19 13:12:12;;;;;;;1.53;0.70;;;10.90;96.30;;;;;;5012901;28;20431;-81
2022/10/19 13:14:46;;;;;;;3.37;1.00;;;11.10;96.30;;;;;;5017412;28;20427;-81
2022/10/19 13:17:37;;;;;;;2.23;0.77;;;11.20;96.30;;;;;;4998361;28;20455;-81
2022/10/19 13:20:15;;;;;;;3.00;0.67;;;11.40;96.30;;;;;;4978824;28;20427;-81
2022/10/19 13:22:45;;;;;;;1.53;0.60;;;11.60;96.30;;;;;;4978531;28;20507;-81
2022/10/19 13:25:31;;;;;;;2.50;0.90;;;11.70;96.30;;;;;;4978578;28;20836;-81
2022/10/19 13:28:06;;;;;;;1.40;0.70;;;11.60;96.30;;;;;;4999885;28;20397;-81
2022/10/19 13:30:37;;;;;;;4.63;1.10;;;11.40;96.30;;;;;;5003078;28;20428;-81
2022/10/19 13:33:24;;;;;;;1.93;0.63;;;10.80;96.30;;;;;;5003300;28;20432;-81
2022/10/19 13:35:59;;;;;;;1.47;0.80;;;10.80;96.30;;;;;;5020298;28;20468;-79
2022/10/19 13:38:25;;;;;;;2.20;0.80;;;;;;;;;;5020602;28;20440;-80
2022/10/19 13:40:51;;;;;;;4.70;0.97;;;;;;;;;;5015690;28;20467;-82
2022/10/19 13:43:38;;;;;;;2.07;0.70;;;11.40;96.30;;;;;;5018647;28;20423;-80
2022/10/19 13:46:14;;;;;;;2.03;0.90;;;11.40;96.30;;;;;;4999811;28;20216;-80
2022/10/19 13:49:08;;;;;;;2.80;0.80;;;11.40;96.30;;;;;;5009635;28;20423;-81
2022/10/19 13:51:47;;;;;;;1.00;0.60;;;11.40;96.30;;;;;;4991760;28;20444;-81
2022/10/19 13:54:36;;;;;;;2.73;0.70;;;11.20;96.30;;;;;;5010742;28;20424;-79
2022/10/19 13:57:33;;;;;;;1.50;0.60;;;11.20;96.30;;;;;;4987119;28;20461;-81
2022/10/19 14:00:24;;;;;;;2.57;0.80;;;11.20;96.30;;;;;;5011015;28;20397;-79
2022/10/19 14:03:18;;;;;;;1.30;0.73;;;11.10;96.30;;;;;;5006935;28;20471;-80
2022/10/19 14:05:58;;;;;;;3.67;0.80;;;11.20;96.30;;;;;;5013475;28;20412;-80
2022/10/19 14:08:51;;;;;;;6.40;0.87;;;11.30;96.30;;;;;;5013392;28;20428;-80
2022/10/19 14:11:24;;;;;;;2.60;0.80;;;11.20;96.30;;;;;;5028108;28;20473;-80
2022/10/19 14:14:09;;;;;;;5.77;1.00;;;11.10;96.30;;;;;;5012839;28;20419;-80
2022/10/19 14:17:04;;;;;;;1.87;0.60;;;11.10;96.30;;;;;;5027167;28;20439;-80
2022/10/19 14:19:47;;;;;;;2.47;0.70;;;11.00;96.30;;;;;;5007010;28;20416;-80
2022/10/19 14:22:28;;;;;;;1.73;0.80;;;10.70;96.30;;;;;;5010240;28;20523;-80
2022/10/19 14:25:06;;;;;;;3.93;1.00;;;10.70;96.30;;;;;;5026894;28;20467;-80
2022/10/19 14:27:33;;;;;;;1.30;1.00;;;10.70;96.30;;;;;;5026788;28;20388;-80
2022/10/19 14:29:59;;;;;;;5.70;1.17;;;10.60;96.30;;;;;;5009354;28;20870;-80
2022/10/19 14:32:27;;;;;;;2.40;0.80;;;10.50;96.30;;;;;;5024108;28;20427;-80
2022/10/19 14:35:02;;;;;;;5.23;0.87;;;10.40;96.30;;;;;;5023128;28;20169;-81
2022/10/19 14:37:27;;;;;;;2.60;0.90;;;10.30;96.30;;;;;;5019036;28;20447;-81
2022/10/19 14:40:21;;;;;;;1.77;0.77;;;10.20;96.30;;;;;;5003689;28;20411;-81
2022/10/19 14:42:47;;;;;;;4.40;1.10;;;10.30;96.30;;;;;;5006952;28;20533;-81
2022/10/19 14:45:31;;;;;;;1.87;0.70;;;10.40;96.30;;;;;;5019423;28;20399;-80
2022/10/19 14:47:57;;;;;;;3.37;0.80;;;10.40;96.30;;;;;;5002661;28;20503;-81
2022/10/19 14:50:28;;;;;;;0.90;0.70;;;10.20;96.30;;;;;;5000876;28;20928;-81
2022/10/19 14:53:17;;;;;;;3.70;1.17;;;10.20;96.30;;;;;;5003550;28;20231;-81
2022/10/19 14:55:43;;;;;;;4.40;0.90;;;10.20;96.30;;;;;;4999518;28;20455;-80
2022/10/19 14:58:14;;;;;;;7.60;1.00;;;10.20;96.30;;;;;;5018884;28;20418;-81
2022/10/19 15:00:41;;;;;;;3.00;0.80;;;10.30;96.30;;;;;;5016299;28;20458;-80
2022/10/19 15:03:10;;;;;;;1.97;1.00;;;10.30;96.30;;;;;;4999612;28;20467;-80
2022/10/19 15:05:44;;;;;;;10.00;0.90;;;10.20;96.30;;;;;;5016578;28;20424;-80
2022/10/19 15:08:38;;;;;;;4.60;1.20;;;10.10;96.30;;;;;;4998462;28;20412;-80
2022/10/19 15:11:05;;;;;;;3.50;1.20;;;10.00;96.30;;;;;;4998641;28;20489;-81
2022/10/19 15:13:34;;;;;;;2.10;1.00;;;9.90;96.30;;;;;;5020586;28;20458;-80
2022/10/19 15:16:00;;;;;;;1.90;1.40;;;10.00;96.30;;;;;;5017267;28;20497;-81
2022/10/19 15:18:34;;;;;;;2.97;1.43;;;10.00;96.30;;;;;;4998879;28;20989;-81
2022/10/19 15:21:17;;;;;;;4.23;1.07;;;10.10;96.30;;;;;;5017667;28;20879;-81
2022/10/19 15:23:46;;;;;;;2.63;0.83;;;10.10;96.30;;;;;;5000461;28;20486;-81
2022/10/19 15:26:20;;;;;;;3.63;1.00;;;10.00;96.30;;;;;;5018737;28;20436;-81
2022/10/19 15:28:47;;;;;;;3.03;0.77;;;9.90;96.30;;;;;;5017618;28;20895;-81
2022/10/19 15:31:28;;;;;;;1.10;0.70;;;9.90;96.30;;;;;;4997735;28;20440;-80
2022/10/19 15:33:56;;;;;;;3.00;0.90;;;9.80;96.30;;;;;;5014098;28;20891;-78
2022/10/19 15:36:23;;;;;;;2.90;1.23;;;9.70;96.30;;;;;;4998580;28;20546;-79
2022/10/19 15:38:49;;;;;;;1.70;0.90;;;;;;;;;;4997875;28;22315;-79
2022/10/19 15:41:32;;;;;;;1.47;0.77;;;9.50;96.30;;;;;;4996556;28;20446;-79
2022/10/19 15:44:01;;;;;;;9.20;1.90;;;9.40;96.30;;;;;;4997543;28;20580;-79
2022/10/19 15:46:30;;;;;;;4.67;1.10;;;9.40;96.30;;;;;;4996480;28;20432;-79
2022/10/19 15:49:15;;;;;;;4.70;1.10;;;9.30;96.30;;;;;;4997450;28;20920;-79
2022/10/19 15:51:43;;;;;;;3.73;1.00;;;9.20;96.30;;;;;;5015942;28;20432;-79
2022/10/19 15:54:10;;;;;;;2.60;1.00;;;9.10;96.30;;;;;;5015630;28;20450;-80
2022/10/19 15:56:38;;;;;;;3.97;0.93;;;9.10;96.30;;;;;;4995706;28;20499;-80
2022/10/19 15:59:09;;;;;;;3.00;0.90;;;9.10;96.30;;;;;;5013105;28;20414;-79
2022/10/19 16:01:35;;;;;;;4.90;1.30;;;9.00;96.30;;;;;;4995607;28;20970;-79
2022/10/19 16:04:01;;;;;;;4.97;1.43;;;9.00;96.30;;;;;;5013090;28;20408;-79
2022/10/19 16:06:31;;;;;;;2.97;0.93;;;8.90;96.30;;;;;;5014184;28;20177;-81
2022/10/19 16:08:57;;;;;;;2.50;0.73;;;8.90;96.30;;;;;;5014969;28;20157;-81
2022/10/19 16:11:24;;;;;;;3.63;0.73;;;8.90;96.30;;;;;;4995726;28;20529;-79
2022/10/19 16:13:54;;;;;;;4.43;1.30;;;8.90;96.30;;;;;;4994533;28;20792;-79
2022/10/19 16:16:24;;;;;;;2.50;0.87;;;8.90;96.30;;;;;;4995012;28;20448;-77
2022/10/19 16:18:49;;;;;;;20.00;1.57;;;8.80;96.30;;;;;;4994793;28;20412;-80
2022/10/19 16:21:16;;;;;;;5.73;1.70;;;8.80;96.30;;;;;;5012387;28;20438;-77
2022/10/19 16:23:41;;;;;;;4.80;1.83;;;8.80;96.30;;;;;;4995090;28;20187;-78
2022/10/19 16:26:07;;;;;;;2.17;1.30;;;8.80;96.30;;;;;;5012176;28;20518;-79
2022/10/19 16:28:33;;;;;;;3.10;1.13;;;;;;;;;;4994525;28;20705;-78
2022/10/19 16:30:58;;;;;;;5.47;1.47;;;8.90;96.30;;;;;;4994673;28;20204;-78
2022/10/19 16:33:24;;;;;;;2.60;1.00;;;8.80;96.30;;;;;;4994681;28;20177;-77
2022/10/19 16:35:50;;;;;;;3.40;1.30;;;;;;;;;;5011840;28;20204;-79
2022/10/19 16:38:15;;;;;;;4.97;1.37;;;8.90;96.30;;;;;;4993567;28;20173;-80
2022/10/19 16:40:41;;;;;;;8.10;1.80;;;;;;;;;;5012227;28;20193;-77
2022/10/19 16:43:07;;;;;;;1.97;1.40;;;;;;;;;;5012407;28;20173;-78
2022/10/19 16:45:34;;;;;;;2.90;1.80;;;8.70;96.30;;;;;;5011158;28;20444;-78
2022/10/19 16:48:00;;;;;;;5.90;2.40;;;8.70;96.30;;;;;;4997152;28;20432;-79
2022/10/19 16:50:25;;;;;;;2.30;1.73;;;8.70;96.30;;;;;;4997482;28;20427;-78
2022/10/19 16:53:08;;;;;;;5.13;2.27;;;8.60;96.30;;;;;;4998293;28;20196;-80
2022/10/19 16:55:38;;;;;;;7.03;2.03;;;8.60;96.30;;;;;;4997954;28;20680;-80
2022/10/19 16:58:04;;;;;;;3.10;2.00;;;8.70;96.30;;;;;;5015286;28;20416;-82
2022/10/19 17:00:30;;;;;;;2.77;1.50;;;8.70;96.30;;;;;;5015440;28;20408;-78
2022/10/19 17:02:56;;;;;;;2.77;1.87;;;8.70;96.30;;;;;;4997993;28;20408;-80
2022/10/19 17:05:21;;;;;;;4.97;2.73;;;8.60;96.30;;;;;;4997851;28;20184;-79
2022/10/19 17:07:47;;;;;;;6.57;2.17;;;8.60;96.30;;;;;;5015361;28;20180;-81
2022/10/19 17:10:14;;;;;;;2.57;2.20;;;;;;;;;;4997937;28;20655;-80
2022/10/19 17:12:39;;;;;;;2.83;2.23;;;8.60;96.30;;;;;;5014216;28;20637;-78
2022/10/19 17:15:07;;;;;;;3.93;2.60;;;8.60;96.30;;;;;;4997740;28;20423;-78
2022/10/19 17:17:32;;;;;;;4.73;2.63;;;8.60;96.30;;;;;;5015437;28;20175;-78
2022/10/19 17:19:58;;;;;;;2.67;1.90;;;8.60;96.30;;;;;;5015434;28;20772;-78
2022/10/19 17:22:23;;;;;;;3.70;2.33;;;8.60;96.30;;;;;;5015454;28;20208;-79
2022/10/19 17:24:49;;;;;;;3.80;1.80;;;8.50;96.30;;;;;;5015239;28;20192;-79
2022/10/19 17:27:14;;;;;;;2.43;1.80;;;8.50;96.30;;;;;;5015351;28;20637;-78